createdAt,value
2018-12-31T00:02:10.653Z,17.60
2018-12-31T00:04:41.564Z,14.70
2018-12-31T00:07:13.262Z,17.00
2018-12-31T00:09:44.603Z,11.67
2018-12-31T00:12:15.252Z,12.47
2018-12-31T00:14:45.975Z,14.40
2018-12-31T00:17:16.606Z,14.57
2018-12-31T00:19:47.264Z,14.90
2018-12-31T00:22:17.910Z,12.00
2018-12-31T00:24:48.608Z,12.03
2018-12-31T00:27:19.304Z,8.70
2018-12-31T00:29:49.988Z,13.90
2018-12-31T00:32:20.636Z,16.70
2018-12-31T00:34:51.317Z,14.40
2018-12-31T00:37:21.992Z,14.13
2018-12-31T00:39:52.694Z,17.97
2018-12-31T00:42:23.309Z,15.13
2018-12-31T00:44:53.973Z,20.03
2018-12-31T00:47:24.671Z,14.83
2018-12-31T00:49:55.393Z,18.17
2018-12-31T00:52:26.078Z,14.37
2018-12-31T00:54:56.738Z,16.20
2018-12-31T00:57:27.406Z,14.23
2018-12-31T00:59:58.081Z,16.50
2018-12-31T01:02:28.781Z,10.67
2018-12-31T01:05:00.277Z,13.53
2018-12-31T01:07:30.944Z,12.50
2018-12-31T01:10:01.629Z,19.67
2018-12-31T01:12:32.327Z,14.73
2018-12-31T01:15:02.947Z,13.07
2018-12-31T01:17:33.643Z,21.53
2018-12-31T01:20:04.328Z,13.40
2018-12-31T01:22:35.914Z,13.70
2018-12-31T01:25:08.292Z,13.10
2018-12-31T01:27:39.341Z,8.77
2018-12-31T01:30:11.003Z,12.83
2018-12-31T01:32:41.736Z,14.37
2018-12-31T01:35:12.801Z,18.37
2018-12-31T01:37:43.689Z,11.77
2018-12-31T01:40:14.918Z,15.40
2018-12-31T01:42:45.599Z,16.50
2018-12-31T01:45:16.264Z,12.43
2018-12-31T01:47:46.955Z,12.87
2018-12-31T01:50:17.625Z,16.30
2018-12-31T01:52:48.252Z,14.67
2018-12-31T01:55:19.093Z,15.00
2018-12-31T01:57:49.756Z,10.50
2018-12-31T02:00:20.409Z,10.13
2018-12-31T02:02:51.072Z,21.27
2018-12-31T02:05:21.729Z,13.07
2018-12-31T02:07:52.389Z,16.17
2018-12-31T02:10:23.031Z,16.10
2018-12-31T02:12:53.735Z,13.17
2018-12-31T02:15:24.378Z,19.37
2018-12-31T02:17:55.047Z,17.13
2018-12-31T02:20:25.708Z,21.07
2018-12-31T02:22:56.347Z,17.23
2018-12-31T02:25:27.002Z,19.17
2018-12-31T02:27:57.744Z,18.40
2018-12-31T02:30:28.461Z,14.67
2018-12-31T02:33:00.045Z,20.57
2018-12-31T02:35:30.719Z,21.10
2018-12-31T02:38:01.496Z,20.30
2018-12-31T02:40:32.798Z,15.57
2018-12-31T02:43:03.498Z,14.87
2018-12-31T02:45:34.148Z,15.93
2018-12-31T02:48:04.898Z,17.07
2018-12-31T02:50:35.643Z,11.57
2018-12-31T02:53:06.400Z,20.43
2018-12-31T02:55:37.466Z,25.27
2018-12-31T02:58:08.115Z,18.27
2018-12-31T03:00:39.313Z,11.23
2018-12-31T03:03:09.994Z,18.67
2018-12-31T03:05:40.645Z,24.33
2018-12-31T03:08:11.752Z,21.03
2018-12-31T03:10:42.401Z,17.20
2018-12-31T03:13:13.089Z,25.37
2018-12-31T03:15:44.184Z,20.10
2018-12-31T03:18:14.831Z,18.57
2018-12-31T03:20:45.497Z,21.83
2018-12-31T03:23:16.185Z,16.40
2018-12-31T03:25:46.958Z,11.83
2018-12-31T03:28:17.660Z,15.03
2018-12-31T03:30:48.350Z,23.90
2018-12-31T03:33:18.984Z,13.13
2018-12-31T03:35:49.682Z,21.90
2018-12-31T03:38:20.387Z,14.67
2018-12-31T03:40:51.064Z,16.20
2018-12-31T03:43:21.791Z,15.73
2018-12-31T03:45:52.527Z,16.47
2018-12-31T03:48:23.199Z,17.47
2018-12-31T03:50:53.926Z,14.53
2018-12-31T03:53:24.605Z,14.27
2018-12-31T03:55:55.290Z,17.13
2018-12-31T03:58:25.976Z,16.10
2018-12-31T04:00:56.645Z,23.17
2018-12-31T04:03:27.310Z,19.20
2018-12-31T04:05:57.983Z,15.23
2018-12-31T04:08:28.650Z,13.70
2018-12-31T04:10:59.315Z,17.83
2018-12-31T04:13:29.971Z,18.87
2018-12-31T04:16:00.603Z,13.10
2018-12-31T04:18:31.378Z,18.80
2018-12-31T04:21:02.019Z,15.03
2018-12-31T04:23:32.694Z,20.20
2018-12-31T04:26:03.499Z,16.97
2018-12-31T04:28:34.579Z,19.67
2018-12-31T04:31:05.279Z,20.17
2018-12-31T04:33:35.958Z,19.27
2018-12-31T04:36:06.615Z,15.37
2018-12-31T04:38:37.379Z,19.60
2018-12-31T04:41:08.627Z,22.70
2018-12-31T04:43:39.383Z,21.37
2018-12-31T04:46:14.680Z,22.40
2018-12-31T04:48:45.548Z,23.67
2018-12-31T04:51:18.194Z,21.53
2018-12-31T04:53:48.796Z,19.83
2018-12-31T04:56:19.459Z,25.50
2018-12-31T04:58:50.085Z,12.50
2018-12-31T05:01:20.769Z,19.50
2018-12-31T05:03:51.431Z,19.73
2018-12-31T05:06:22.182Z,14.80
2018-12-31T05:08:52.840Z,17.10
2018-12-31T05:11:24.051Z,19.53
2018-12-31T05:13:54.661Z,23.40
2018-12-31T05:16:25.980Z,16.70
2018-12-31T05:18:56.651Z,12.73
2018-12-31T05:21:27.366Z,19.37
2018-12-31T05:23:58.039Z,12.10
2018-12-31T05:26:29.001Z,16.83
2018-12-31T05:28:59.631Z,15.80
2018-12-31T05:31:30.310Z,13.93
2018-12-31T05:34:00.998Z,17.00
2018-12-31T05:36:31.689Z,16.37
2018-12-31T05:39:02.335Z,21.27
2018-12-31T05:41:33.047Z,18.30
2018-12-31T05:44:03.723Z,14.70
2018-12-31T05:46:34.922Z,13.37
2018-12-31T05:49:05.595Z,22.80
2018-12-31T05:51:36.340Z,17.47
2018-12-31T05:54:07.043Z,19.67
2018-12-31T05:56:37.716Z,16.07
2018-12-31T05:59:08.381Z,18.87
2018-12-31T06:01:39.633Z,19.57
2018-12-31T06:04:10.339Z,16.47
2018-12-31T06:06:42.334Z,21.30
2018-12-31T06:09:13.034Z,24.53
2018-12-31T06:11:45.513Z,16.83
2018-12-31T06:14:16.295Z,16.43
2018-12-31T06:16:47.204Z,26.30
2018-12-31T06:19:17.919Z,26.73
2018-12-31T06:21:48.644Z,24.73
2018-12-31T06:24:19.323Z,25.87
2018-12-31T06:26:49.954Z,21.50
2018-12-31T06:29:20.630Z,20.20
2018-12-31T06:31:51.256Z,24.77
2018-12-31T06:34:21.985Z,19.73
2018-12-31T06:36:52.653Z,15.40
2018-12-31T06:39:23.344Z,26.97
2018-12-31T06:41:54.578Z,31.57
2018-12-31T06:44:25.296Z,19.13
2018-12-31T06:46:56.054Z,23.70
2018-12-31T06:49:26.735Z,23.87
2018-12-31T06:51:57.428Z,22.40
2018-12-31T06:54:28.090Z,20.23
2018-12-31T06:56:58.761Z,27.73
2018-12-31T06:59:29.463Z,28.07
2018-12-31T07:02:00.121Z,27.37
2018-12-31T07:04:30.921Z,23.93
2018-12-31T07:07:01.611Z,24.53
2018-12-31T07:09:33.215Z,18.20
2018-12-31T07:12:03.943Z,27.40
2018-12-31T07:14:36.255Z,23.23
2018-12-31T07:17:07.010Z,23.33
2018-12-31T07:19:40.458Z,39.40
2018-12-31T07:22:11.242Z,27.70
2018-12-31T07:24:43.042Z,33.10
2018-12-31T07:27:13.705Z,19.00
2018-12-31T07:29:44.410Z,24.67
2018-12-31T07:32:15.141Z,26.80
2018-12-31T07:34:45.858Z,32.97
2018-12-31T07:37:16.495Z,32.90
2018-12-31T07:39:47.272Z,26.27
2018-12-31T07:42:17.984Z,29.30
2018-12-31T07:44:48.737Z,30.33
2018-12-31T07:47:21.172Z,28.40
2018-12-31T07:49:51.849Z,30.17
2018-12-31T07:52:22.528Z,29.20
2018-12-31T07:54:53.237Z,30.90
2018-12-31T07:57:23.872Z,27.60
2018-12-31T07:59:54.541Z,36.33
2018-12-31T08:02:25.206Z,45.80
2018-12-31T08:04:55.968Z,26.30
2018-12-31T08:07:26.650Z,28.23
2018-12-31T08:09:57.377Z,33.90
2018-12-31T08:12:28.079Z,25.40
2018-12-31T08:14:58.748Z,35.17
2018-12-31T08:17:29.440Z,30.93
2018-12-31T08:20:00.261Z,23.70
2018-12-31T08:22:30.925Z,27.80
2018-12-31T08:25:01.694Z,19.87
2018-12-31T08:27:32.419Z,26.73
2018-12-31T08:30:03.072Z,31.23
2018-12-31T08:32:33.803Z,32.97
2018-12-31T08:35:04.488Z,49.37
2018-12-31T08:37:35.760Z,34.80
2018-12-31T08:40:06.466Z,19.83
2018-12-31T08:42:37.852Z,28.90
2018-12-31T08:45:08.713Z,26.37
2018-12-31T08:47:40.264Z,25.30
2018-12-31T08:50:11.039Z,26.47
2018-12-31T08:52:42.557Z,25.47
2018-12-31T08:55:13.338Z,21.77
2018-12-31T08:57:46.020Z,21.60
2018-12-31T09:00:16.756Z,21.80
2018-12-31T09:02:47.580Z,24.83
2018-12-31T09:05:18.351Z,25.80
2018-12-31T09:07:49.196Z,23.93
2018-12-31T09:10:19.970Z,24.10
2018-12-31T09:12:50.682Z,25.10
2018-12-31T09:15:21.410Z,24.67
2018-12-31T09:17:52.080Z,22.77
2018-12-31T09:20:23.642Z,24.77
2018-12-31T09:22:54.369Z,17.90
2018-12-31T09:25:28.287Z,29.07
2018-12-31T09:27:59.043Z,23.47
2018-12-31T09:30:29.775Z,16.73
2018-12-31T09:33:00.494Z,25.03
2018-12-31T09:35:32.291Z,15.63
2018-12-31T09:38:11.224Z,18.33
2018-12-31T09:40:44.366Z,15.20
2018-12-31T09:43:20.476Z,18.27
2018-12-31T09:45:59.017Z,24.17
2018-12-31T09:48:36.418Z,17.17
2018-12-31T09:51:11.121Z,14.27
2018-12-31T09:53:48.672Z,18.43
2018-12-31T09:56:25.581Z,17.23
2018-12-31T09:58:57.077Z,16.20
2018-12-31T10:01:34.645Z,11.63
2018-12-31T10:04:06.264Z,16.10
2018-12-31T10:06:44.564Z,14.47
2018-12-31T10:09:17.011Z,19.37
2018-12-31T10:11:57.229Z,15.73
2018-12-31T10:14:36.063Z,16.33
2018-12-31T10:17:18.882Z,32.60
2018-12-31T10:19:58.723Z,10.90
2018-12-31T10:22:34.016Z,14.77
2018-12-31T10:25:10.976Z,12.67
2018-12-31T10:27:48.001Z,10.93
2018-12-31T10:30:19.868Z,12.50
2018-12-31T10:32:53.992Z,12.17
2018-12-31T10:35:30.891Z,10.93
2018-12-31T10:38:10.755Z,9.37
2018-12-31T10:40:48.659Z,17.60
2018-12-31T10:43:26.767Z,11.30
2018-12-31T10:46:10.196Z,13.97
2018-12-31T10:48:47.408Z,12.33
2018-12-31T10:51:22.384Z,16.50
2018-12-31T10:53:53.908Z,15.33
2018-12-31T10:56:29.713Z,15.60
2018-12-31T10:59:06.951Z,15.80
2018-12-31T11:04:48.140Z,13.40
2018-12-31T11:07:22.938Z,17.27
2018-12-31T11:10:00.668Z,14.47
2018-12-31T11:12:34.726Z,15.13
2018-12-31T11:15:07.467Z,14.20
2018-12-31T11:17:42.067Z,14.43
2018-12-31T11:20:19.703Z,13.40
2018-12-31T11:22:59.291Z,11.27
2018-12-31T11:25:33.472Z,16.77
2018-12-31T11:28:13.225Z,11.27
2018-12-31T11:30:48.632Z,9.73
2018-12-31T11:33:23.030Z,13.73
2018-12-31T11:35:57.346Z,15.83
2018-12-31T11:38:29.740Z,15.20
2018-12-31T11:41:08.099Z,13.77
2018-12-31T11:43:39.454Z,12.03
2018-12-31T11:46:13.621Z,11.83
2018-12-31T11:48:50.510Z,11.20
2018-12-31T11:51:21.857Z,8.97
2018-12-31T11:53:56.304Z,9.40
2018-12-31T11:56:33.742Z,11.40
2018-12-31T11:59:10.993Z,13.93
2018-12-31T12:01:43.317Z,12.23
2018-12-31T12:04:21.239Z,8.90
2018-12-31T12:06:55.708Z,12.43
2018-12-31T12:09:33.028Z,14.97
2018-12-31T12:12:07.851Z,12.57
2018-12-31T12:14:48.069Z,14.37
2018-12-31T12:17:30.921Z,9.27
2018-12-31T12:20:05.878Z,9.90
2018-12-31T12:22:42.976Z,9.23
2018-12-31T12:25:18.177Z,11.30
2018-12-31T12:27:55.742Z,10.63
2018-12-31T12:30:30.573Z,12.97
2018-12-31T12:33:07.410Z,10.37
2018-12-31T12:35:47.739Z,9.07
2018-12-31T12:38:20.083Z,7.93
2018-12-31T12:40:55.396Z,8.03
2018-12-31T12:43:32.687Z,9.97
2018-12-31T12:46:09.833Z,6.10
2018-12-31T12:48:50.108Z,12.50
2018-12-31T12:51:24.243Z,12.27
2018-12-31T12:53:58.757Z,8.63
2018-12-31T12:56:33.275Z,9.53
2018-12-31T12:59:10.734Z,10.93
2018-12-31T13:01:46.060Z,16.40
2018-12-31T13:04:23.657Z,16.40
2018-12-31T13:07:04.084Z,12.23
2018-12-31T13:09:38.118Z,13.63
2018-12-31T13:12:18.387Z,16.23
2018-12-31T13:14:52.754Z,10.30
2018-12-31T13:17:24.196Z,10.63
2018-12-31T13:19:56.231Z,9.33
2018-12-31T13:22:30.347Z,11.03
2018-12-31T13:25:01.757Z,9.73
2018-12-31T13:27:34.974Z,12.87
2018-12-31T13:30:10.483Z,13.33
2018-12-31T13:32:46.517Z,11.60
2018-12-31T13:35:21.307Z,12.60
2018-12-31T13:37:53.449Z,9.03
2018-12-31T13:40:28.337Z,12.50
2018-12-31T13:43:05.439Z,10.50
2018-12-31T13:45:42.656Z,9.93
2018-12-31T13:48:16.909Z,9.90
2018-12-31T13:50:54.244Z,12.67
2018-12-31T13:53:31.755Z,11.70
2018-12-31T13:56:05.837Z,11.37
2018-12-31T13:58:37.187Z,9.87
2018-12-31T14:01:11.290Z,13.60
2018-12-31T14:03:42.808Z,10.40
2018-12-31T14:06:17.116Z,19.43
2018-12-31T14:08:51.604Z,9.77
2018-12-31T14:11:23.946Z,11.23
2018-12-31T14:13:58.215Z,10.20
2018-12-31T14:16:29.205Z,11.60
2018-12-31T14:18:59.836Z,15.63
2018-12-31T14:21:31.244Z,16.23
2018-12-31T14:24:01.914Z,15.67
2018-12-31T14:26:32.716Z,12.43
2018-12-31T14:29:03.881Z,13.83
2018-12-31T14:31:34.662Z,10.70
2018-12-31T14:34:06.541Z,16.17
2018-12-31T14:36:38.117Z,16.53
2018-12-31T14:39:09.528Z,11.10
2018-12-31T14:41:40.189Z,17.67
2018-12-31T14:44:11.692Z,12.17
2018-12-31T14:46:42.648Z,14.23
2018-12-31T14:49:13.588Z,14.03
2018-12-31T14:51:44.729Z,12.53
2018-12-31T14:54:15.393Z,14.30
2018-12-31T14:56:46.070Z,13.40
2018-12-31T14:59:16.952Z,11.57
2018-12-31T15:01:47.722Z,15.50
2018-12-31T15:04:18.897Z,19.87
2018-12-31T15:06:49.582Z,15.47
2018-12-31T15:09:23.056Z,12.90
2018-12-31T15:11:53.729Z,12.23
2018-12-31T15:14:24.710Z,26.00
2018-12-31T15:16:55.453Z,14.53
2018-12-31T15:19:26.170Z,11.43
2018-12-31T15:21:57.271Z,13.07
2018-12-31T15:24:27.942Z,10.47
2018-12-31T15:26:58.658Z,12.70
2018-12-31T15:29:29.464Z,15.10
2018-12-31T15:32:08.970Z,20.73
2018-12-31T15:34:40.928Z,16.17
2018-12-31T15:37:11.745Z,14.23
2018-12-31T15:39:42.865Z,15.60
2018-12-31T15:42:14.100Z,19.83
2018-12-31T15:44:44.819Z,17.17
2018-12-31T15:47:15.447Z,15.83
2018-12-31T15:49:46.375Z,16.20
2018-12-31T15:52:17.068Z,18.57
2018-12-31T15:54:47.886Z,19.50
2018-12-31T15:57:18.628Z,16.97
2018-12-31T15:59:49.693Z,22.30
2018-12-31T16:02:20.414Z,27.83
2018-12-31T16:04:51.371Z,33.03
2018-12-31T16:07:22.099Z,16.70
2018-12-31T16:09:52.797Z,17.93
2018-12-31T16:12:23.645Z,15.13
2018-12-31T16:14:55.649Z,20.83
2018-12-31T16:17:26.502Z,15.67
2018-12-31T16:19:57.186Z,21.03
2018-12-31T16:22:28.515Z,24.93
2018-12-31T16:24:59.270Z,22.23
2018-12-31T16:27:30.636Z,22.53
2018-12-31T16:30:01.472Z,24.87
2018-12-31T16:32:32.733Z,23.60
2018-12-31T16:35:03.407Z,23.67
2018-12-31T16:37:37.065Z,24.10
2018-12-31T16:40:08.101Z,27.10
2018-12-31T16:42:39.226Z,30.30
2018-12-31T16:45:10.217Z,26.50
2018-12-31T16:47:41.204Z,20.73
2018-12-31T16:50:11.995Z,33.50
2018-12-31T16:52:43.368Z,34.30
2018-12-31T16:55:14.138Z,41.30
2018-12-31T16:57:44.921Z,37.90
2018-12-31T17:00:19.984Z,34.80
2018-12-31T17:02:50.698Z,44.40
2018-12-31T17:05:21.358Z,74.70
2018-12-31T17:07:52.294Z,50.10
2018-12-31T17:10:23.012Z,124.00
2018-12-31T17:12:53.709Z,150.80
2018-12-31T17:15:24.466Z,153.27
2018-12-31T17:17:56.890Z,134.83
2018-12-31T17:20:27.660Z,220.97
2018-12-31T17:22:58.350Z,231.47
2018-12-31T17:25:29.036Z,126.50
2018-12-31T17:27:59.724Z,216.97
2018-12-31T17:30:30.646Z,107.47
2018-12-31T17:33:01.576Z,127.37
2018-12-31T17:35:32.594Z,144.07
2018-12-31T17:38:03.341Z,143.67
2018-12-31T17:40:34.855Z,154.43
2018-12-31T17:43:05.552Z,142.23
2018-12-31T17:45:36.802Z,163.97
2018-12-31T17:48:07.494Z,172.27
2018-12-31T17:50:38.212Z,147.53
2018-12-31T17:53:08.857Z,116.10
2018-12-31T17:55:40.665Z,36.43
2018-12-31T17:58:11.364Z,35.57
2018-12-31T18:00:42.602Z,30.20
2018-12-31T18:03:13.282Z,47.43
2018-12-31T18:05:43.961Z,49.27
2018-12-31T18:08:15.150Z,69.63
2018-12-31T18:10:46.556Z,66.80
2018-12-31T18:13:17.275Z,87.27
2018-12-31T18:15:47.922Z,74.63
2018-12-31T18:18:18.893Z,69.87
2018-12-31T18:20:49.611Z,138.60
2018-12-31T18:23:20.379Z,531.10
2018-12-31T18:25:51.143Z,129.63
2018-12-31T18:28:21.861Z,85.00
2018-12-31T18:30:53.304Z,66.73
2018-12-31T18:33:26.747Z,73.43
2018-12-31T18:35:57.558Z,79.47
2018-12-31T18:38:28.338Z,83.63
2018-12-31T18:40:59.676Z,158.73
2018-12-31T18:43:30.425Z,125.10
2018-12-31T18:46:01.163Z,199.60
2018-12-31T18:48:32.074Z,103.93
2018-12-31T18:51:03.347Z,111.67
2018-12-31T18:53:34.075Z,114.27
2018-12-31T18:56:04.757Z,51.40
2018-12-31T18:58:36.306Z,53.40
2018-12-31T19:01:06.984Z,84.70
2018-12-31T19:03:38.657Z,59.40
2018-12-31T19:06:09.544Z,89.47
2018-12-31T19:08:40.977Z,51.20
2018-12-31T19:11:12.671Z,52.93
2018-12-31T19:13:44.715Z,46.20
2018-12-31T19:16:15.402Z,45.93
2018-12-31T19:18:46.217Z,41.03
2018-12-31T19:21:16.992Z,49.87
2018-12-31T19:23:47.718Z,36.33
2018-12-31T19:26:18.375Z,32.13
2018-12-31T19:28:49.281Z,27.40
2018-12-31T19:31:20.026Z,29.50
2018-12-31T19:33:50.716Z,24.27
2018-12-31T19:36:21.723Z,35.67
2018-12-31T19:38:52.448Z,34.53
2018-12-31T19:41:23.124Z,26.47
2018-12-31T19:43:53.899Z,24.83
2018-12-31T19:46:24.624Z,26.73
2018-12-31T19:48:55.242Z,22.60
2018-12-31T19:51:25.907Z,23.47
2018-12-31T19:53:56.619Z,29.40
2018-12-31T19:56:27.371Z,21.67
2018-12-31T19:58:58.633Z,25.57
2018-12-31T20:01:29.318Z,28.43
2018-12-31T20:03:59.993Z,89.00
2018-12-31T20:06:30.720Z,28.97
2018-12-31T20:09:02.093Z,29.27
2018-12-31T20:11:33.008Z,24.67
2018-12-31T20:14:03.835Z,28.97
2018-12-31T20:16:34.522Z,31.60
2018-12-31T20:19:05.301Z,27.60
2018-12-31T20:21:36.385Z,27.97
2018-12-31T20:24:07.210Z,29.03
2018-12-31T20:26:38.082Z,26.50
2018-12-31T20:29:08.811Z,33.47
2018-12-31T20:31:39.900Z,262.57
2018-12-31T20:34:10.883Z,58.33
2018-12-31T20:36:42.620Z,35.67
2018-12-31T20:39:13.502Z,28.67
2018-12-31T20:41:44.366Z,117.90
2018-12-31T20:44:15.121Z,100.57
2018-12-31T20:46:47.064Z,29.87
2018-12-31T20:49:17.889Z,41.37
2018-12-31T20:51:48.675Z,131.57
2018-12-31T20:54:19.448Z,55.23
2018-12-31T20:56:50.224Z,28.43
2018-12-31T20:59:20.997Z,26.13
2018-12-31T21:01:53.618Z,27.67
2018-12-31T21:04:25.964Z,25.30
2018-12-31T21:06:56.892Z,28.70
2018-12-31T21:09:28.847Z,29.13
2018-12-31T21:12:03.310Z,26.00
2018-12-31T21:14:34.015Z,25.17
2018-12-31T21:17:05.541Z,28.47
2018-12-31T21:19:36.844Z,27.33
2018-12-31T21:22:07.622Z,27.83
2018-12-31T21:24:38.875Z,26.13
2018-12-31T21:27:09.606Z,31.47
2018-12-31T21:29:40.261Z,28.73
2018-12-31T21:32:10.939Z,30.70
2018-12-31T21:34:43.418Z,34.10
2018-12-31T21:37:14.217Z,30.10
2018-12-31T21:39:45.278Z,28.50
2018-12-31T21:42:18.256Z,32.10
2018-12-31T21:44:49.070Z,32.37
2018-12-31T21:47:19.818Z,37.83
2018-12-31T21:49:50.968Z,35.10
2018-12-31T21:52:21.785Z,37.60
2018-12-31T21:54:52.577Z,98.27
2018-12-31T21:57:23.435Z,37.00
2018-12-31T21:59:54.160Z,34.37
2018-12-31T22:02:25.390Z,34.13
2018-12-31T22:04:59.651Z,29.83
2018-12-31T22:07:30.385Z,31.20
2018-12-31T22:10:01.171Z,38.17
2018-12-31T22:12:31.929Z,36.43
2018-12-31T22:15:02.763Z,30.07
2018-12-31T22:17:33.515Z,33.63
2018-12-31T22:20:04.230Z,32.87
2018-12-31T22:22:35.158Z,36.07
2018-12-31T22:25:06.310Z,33.80
2018-12-31T22:27:38.246Z,88.23
2018-12-31T22:30:10.551Z,36.27
2018-12-31T22:32:41.383Z,26.90
2018-12-31T22:35:12.066Z,30.83
2018-12-31T22:37:43.472Z,31.93
2018-12-31T22:40:14.235Z,422.67
2018-12-31T22:42:45.224Z,103.50
2018-12-31T22:45:15.883Z,31.20
2018-12-31T22:47:47.829Z,29.33
2018-12-31T22:50:18.545Z,28.77
2018-12-31T22:52:51.356Z,30.17
2018-12-31T22:55:22.568Z,34.77
2018-12-31T22:57:53.302Z,36.00
2018-12-31T23:00:28.958Z,47.27
2018-12-31T23:02:59.680Z,419.60
2018-12-31T23:05:34.247Z,167.63
2018-12-31T23:08:05.172Z,155.37
2018-12-31T23:10:36.686Z,139.80
2018-12-31T23:13:07.596Z,347.70
2018-12-31T23:15:40.256Z,379.47
2018-12-31T23:18:11.209Z,483.70
2018-12-31T23:20:42.541Z,147.17
2018-12-31T23:23:13.673Z,138.03
2018-12-31T23:25:45.120Z,208.77
2018-12-31T23:28:16.274Z,131.17
2018-12-31T23:30:47.536Z,96.67
2018-12-31T23:33:18.532Z,91.80
2018-12-31T23:35:52.268Z,78.77
2018-12-31T23:38:23.653Z,84.47
2018-12-31T23:40:54.601Z,92.27
2018-12-31T23:43:27.300Z,78.97
2018-12-31T23:45:58.564Z,88.67
2018-12-31T23:48:30.678Z,85.17
2018-12-31T23:51:01.707Z,77.30
2018-12-31T23:53:33.382Z,81.57
2018-12-31T23:56:04.344Z,77.13
2018-12-31T23:58:35.183Z,78.57
